Time;durP1;ratioP1;P1;durP2;ratioP2;P2;SDS_P1;SDS_P2;PMS_P1;PMS_P2;Temp;Humidity;BMP_temperature;BMP_pressure;BME280_temperature;BME280_humidity;BME280_pressure;Samples;Min_cycle;Max_cycle;Signal;HPM_P1;HPM_P2
2023/01/01 00:02:15;;;;;;;37.38;23.02;;;13.40;99.90;;;;;;4995921;28;20045;-82
2023/01/01 00:04:41;;;;;;;35.83;26.63;;;13.40;99.90;;;;;;5012062;28;20037;-83
2023/01/01 00:07:07;;;;;;;41.33;31.95;;;13.40;99.90;;;;;;5012055;28;20129;-83
2023/01/01 00:12:17;;;;;;;48.33;32.55;;;13.30;99.90;;;;;;5004293;28;20054;-82
2023/01/01 00:14:43;;;;;;;44.50;31.70;;;13.20;99.90;;;;;;4979270;28;20382;-81
2023/01/01 00:17:09;;;;;;;44.88;31.38;;;13.20;99.90;;;;;;4979653;28;20049;-82
2023/01/01 00:19:35;;;;;;;44.15;30.05;;;13.20;99.90;;;;;;5011517;28;20054;-82
2023/01/01 00:22:01;;;;;;;47.78;31.75;;;13.20;99.90;;;;;;5011502;28;20046;-81
2023/01/01 00:24:26;;;;;;;43.78;32.80;;;13.20;99.90;;;;;;4995499;28;20053;-81
2023/01/01 00:26:52;;;;;;;42.72;30.65;;;13.10;99.90;;;;;;4985850;28;20045;-83
2023/01/01 00:29:18;;;;;;;42.55;31.55;;;13.10;99.90;;;;;;4962719;28;20038;-84
2023/01/01 00:31:44;;;;;;;48.42;35.13;;;13.00;99.90;;;;;;5011643;28;20072;-82
2023/01/01 00:34:10;;;;;;;47.42;32.20;;;12.90;99.90;;;;;;4995200;28;20486;-82
2023/01/01 00:36:36;;;;;;;49.53;30.23;;;12.90;99.90;;;;;;4995373;28;20088;-84
2023/01/01 00:39:02;;;;;;;48.13;28.48;;;12.90;99.90;;;;;;4995142;28;20513;-81
2023/01/01 00:41:28;;;;;;;41.00;27.73;;;12.80;99.90;;;;;;4978889;28;20073;-83
2023/01/01 00:43:53;;;;;;;37.08;25.75;;;12.80;99.90;;;;;;4995386;28;20460;-83
2023/01/01 00:46:19;;;;;;;36.72;24.38;;;12.80;99.90;;;;;;4972330;28;20089;-82
2023/01/01 00:48:45;;;;;;;34.25;23.80;;;12.70;99.90;;;;;;4962199;28;21748;-84
2023/01/01 00:51:11;;;;;;;33.47;21.90;;;12.70;99.90;;;;;;4979249;28;20044;-81
2023/01/01 00:53:37;;;;;;;31.65;21.15;;;12.70;99.90;;;;;;4995471;28;20474;-82
2023/01/01 00:56:04;;;;;;;28.92;19.60;;;12.80;99.90;;;;;;5011481;28;20129;-82
2023/01/01 00:58:29;;;;;;;30.25;19.08;;;12.80;99.90;;;;;;4962934;28;20045;-82
2023/01/01 01:00:55;;;;;;;31.05;19.63;;;12.80;99.90;;;;;;4995202;28;20038;-81
2023/01/01 01:03:28;;;;;;;30.85;18.90;;;12.90;99.90;;;;;;5011140;28;20046;-81
2023/01/01 01:06:02;;;;;;;26.35;17.10;;;12.90;99.90;;;;;;4979949;28;20122;-81
2023/01/01 01:08:31;;;;;;;24.98;17.95;;;13.00;99.90;;;;;;5013867;28;20046;-82
2023/01/01 01:11:10;;;;;;;25.60;16.95;;;13.00;99.90;;;;;;4998357;28;20053;-82
2023/01/01 01:13:36;;;;;;;28.25;17.70;;;13.10;99.90;;;;;;4996268;28;20056;-81
2023/01/01 01:16:30;;;;;;;30.92;17.67;;;13.10;99.90;;;;;;4981912;28;20038;-83
2023/01/01 01:18:59;;;;;;;29.92;17.90;;;13.10;99.90;;;;;;4977304;28;20060;-83
2023/01/01 01:21:26;;;;;;;26.95;18.90;;;13.10;99.90;;;;;;5004232;28;20595;-82
2023/01/01 01:23:53;;;;;;;27.25;18.75;;;13.20;99.90;;;;;;4998467;28;20045;-84
2023/01/01 01:26:24;;;;;;;26.50;18.40;;;13.20;99.90;;;;;;5014279;28;20053;-84
2023/01/01 01:28:51;;;;;;;30.90;19.50;;;13.20;99.90;;;;;;4998154;28;20053;-83
2023/01/01 01:31:19;;;;;;;25.30;18.88;;;13.20;99.90;;;;;;5014300;28;20088;-82
2023/01/01 01:33:46;;;;;;;26.88;18.67;;;13.20;99.90;;;;;;5014323;28;20038;-82
2023/01/01 01:36:13;;;;;;;30.73;17.83;;;13.20;99.90;;;;;;5014383;28;20049;-82
2023/01/01 01:38:39;;;;;;;29.10;17.85;;;13.20;99.90;;;;;;5014303;28;20482;-83
2023/01/01 01:41:05;;;;;;;29.80;19.10;;;13.20;99.90;;;;;;5014072;28;20085;-83
2023/01/01 01:43:34;;;;;;;28.48;18.55;;;13.20;99.90;;;;;;4982250;28;20041;-83
2023/01/01 01:46:03;;;;;;;30.63;18.55;;;13.30;99.90;;;;;;4997908;28;20038;-84
2023/01/01 01:48:33;;;;;;;30.45;19.10;;;13.30;99.90;;;;;;5014156;28;20120;-81
2023/01/01 01:50:59;;;;;;;27.42;18.30;;;13.20;99.90;;;;;;4982166;28;20513;-80
2023/01/01 01:53:31;;;;;;;28.08;17.65;;;13.20;99.90;;;;;;4981510;28;20038;-82
2023/01/01 01:56:00;;;;;;;25.92;18.25;;;13.30;99.90;;;;;;4997763;28;20053;-83
2023/01/01 01:58:28;;;;;;;31.35;19.27;;;13.30;99.90;;;;;;4998067;28;20050;-81
2023/01/01 02:00:54;;;;;;;26.88;17.42;;;13.30;99.90;;;;;;5014033;28;20437;-82
2023/01/01 02:03:30;;;;;;;27.45;17.95;;;13.30;99.90;;;;;;4998006;28;20073;-82
2023/01/01 02:05:56;;;;;;;27.15;17.98;;;13.20;99.90;;;;;;5014089;28;20054;-82
2023/01/01 02:08:23;;;;;;;30.42;18.65;;;13.20;99.90;;;;;;5030415;28;20042;-83
2023/01/01 02:10:48;;;;;;;26.42;19.33;;;13.20;99.90;;;;;;4981860;28;20119;-84
2023/01/01 02:13:14;;;;;;;30.55;17.98;;;13.20;99.90;;;;;;4997654;28;20041;-84
2023/01/01 02:16:11;;;;;;;27.90;18.10;;;13.10;99.90;;;;;;4997449;28;20038;-82
2023/01/01 02:18:46;;;;;;;32.10;18.45;;;13.10;99.90;;;;;;4992209;28;20081;-83
2023/01/01 02:21:17;;;;;;;28.27;17.45;;;13.10;99.90;;;;;;4996339;28;20425;-82
2023/01/01 02:23:53;;;;;;;34.28;18.42;;;13.10;99.90;;;;;;4997166;28;20041;-81
2023/01/01 02:26:45;;;;;;;27.13;17.67;;;13.20;99.90;;;;;;4994702;28;20042;-86
2023/01/01 02:29:26;;;;;;;29.83;18.02;;;13.20;99.90;;;;;;4977714;28;20188;-86
2023/01/01 02:32:02;;;;;;;24.08;17.88;;;13.20;99.90;;;;;;4999682;28;20042;-87
2023/01/01 02:34:34;;;;;;;25.65;16.83;;;13.20;99.90;;;;;;4993996;28;20041;-86
2023/01/01 02:37:04;;;;;;;31.13;17.77;;;13.20;99.90;;;;;;4996824;28;20081;-88
2023/01/01 02:39:34;;;;;;;26.90;15.65;;;13.20;99.90;;;;;;5013248;28;20045;-86
2023/01/01 02:42:02;;;;;;;25.05;15.93;;;13.20;99.90;;;;;;5013236;28;20128;-87
2023/01/01 02:44:31;;;;;;;23.10;14.25;;;13.30;99.90;;;;;;4997520;28;20061;-86
2023/01/01 02:47:09;;;;;;;26.70;15.43;;;13.20;99.90;;;;;;4996798;28;20049;-87
2023/01/01 02:49:40;;;;;;;26.42;14.52;;;13.30;99.90;;;;;;4996984;28;20477;-85
2023/01/01 02:52:33;;;;;;;24.52;13.68;;;13.30;99.90;;;;;;4997231;28;20076;-85
2023/01/01 02:55:12;;;;;;;25.70;13.93;;;13.30;99.90;;;;;;4996948;28;20076;-87
2023/01/01 02:57:49;;;;;;;23.80;13.77;;;13.30;99.90;;;;;;4996621;28;20049;-88
2023/01/01 03:00:26;;;;;;;21.02;12.50;;;13.30;99.90;;;;;;4996492;28;20042;-87
2023/01/01 03:03:08;;;;;;;20.05;12.98;;;13.30;99.90;;;;;;5013461;28;20508;-86
2023/01/01 03:06:30;;;;;;;22.45;13.10;;;13.30;99.90;;;;;;5013412;28;20029;-87
2023/01/01 03:08:47;;;;;;;25.02;13.40;;;13.30;99.90;;;;;;5007517;28;20050;-87
2023/01/01 03:11:17;;;;;;;24.27;11.50;;;13.30;99.90;;;;;;5013004;28;20042;-87
2023/01/01 03:13:48;;;;;;;17.85;11.25;;;13.30;99.90;;;;;;5012960;28;20050;-82
2023/01/01 03:16:37;;;;;;;19.20;10.52;;;13.40;99.90;;;;;;5013137;28;20053;-82
2023/01/01 03:19:13;;;;;;;20.65;10.45;;;13.40;99.90;;;;;;4985508;28;20045;-83
2023/01/01 03:21:48;;;;;;;17.35;8.77;;;13.30;99.90;;;;;;4992779;28;20130;-83
2023/01/01 03:24:44;;;;;;;16.10;8.90;;;13.40;99.90;;;;;;4996757;28;20482;-81
2023/01/01 03:27:18;;;;;;;16.13;7.88;;;13.40;99.90;;;;;;5012163;28;20046;-83
2023/01/01 03:29:46;;;;;;;16.70;7.43;;;13.40;99.90;;;;;;5012060;28;20040;-83
2023/01/01 03:32:18;;;;;;;15.75;7.22;;;13.50;99.90;;;;;;4995466;28;20038;-81
2023/01/01 03:34:48;;;;;;;;;;;13.50;99.90;;;;;;4996366;28;20048;-81
2023/01/01 03:37:21;;;;;;;10.85;5.47;;;13.50;99.90;;;;;;4995491;28;19995;-83
2023/01/01 03:39:57;;;;;;;14.20;5.60;;;13.60;99.90;;;;;;4995961;28;20069;-82
2023/01/01 03:42:30;;;;;;;11.85;5.53;;;13.70;99.90;;;;;;5012145;28;20567;-83
2023/01/01 03:45:05;;;;;;;11.52;5.65;;;13.70;99.90;;;;;;4996123;28;20118;-82
2023/01/01 03:47:32;;;;;;;12.95;4.93;;;13.70;99.90;;;;;;5012155;28;20640;-81
2023/01/01 03:49:59;;;;;;;13.65;5.15;;;13.70;99.90;;;;;;5013714;28;20046;-83
2023/01/01 03:52:58;;;;;;;8.88;3.83;;;13.70;99.90;;;;;;4979393;28;20132;-81
2023/01/01 03:55:33;;;;;;;8.27;4.55;;;13.80;99.90;;;;;;4997422;28;20378;-82
2023/01/01 03:58:11;;;;;;;11.40;4.20;;;13.80;99.90;;;;;;4976548;28;20394;-81
2023/01/01 04:00:45;;;;;;;11.75;4.18;;;13.90;99.90;;;;;;4992721;28;20140;-81
2023/01/01 04:03:26;;;;;;;10.95;3.88;;;13.90;99.90;;;;;;4995786;28;20474;-83
2023/01/01 04:05:51;;;;;;;11.27;4.45;;;13.90;99.90;;;;;;5005724;28;20108;-83
2023/01/01 04:08:18;;;;;;;11.82;3.85;;;14.00;99.90;;;;;;4996053;28;20081;-82
2023/01/01 04:10:55;;;;;;;8.98;3.50;;;14.00;99.90;;;;;;4980061;28;20044;-81
2023/01/01 04:13:21;;;;;;;7.32;3.95;;;14.00;99.90;;;;;;5012110;28;20049;-83
2023/01/01 04:15:47;;;;;;;8.60;3.60;;;14.00;99.90;;;;;;4990943;28;20038;-81
2023/01/01 04:18:12;;;;;;;7.68;3.92;;;14.00;99.90;;;;;;4979550;28;20046;-81
2023/01/01 04:20:38;;;;;;;10.10;3.72;;;14.00;99.90;;;;;;4995710;28;20117;-82
2023/01/01 04:23:04;;;;;;;10.82;3.70;;;14.00;99.90;;;;;;4979360;28;20034;-81
2023/01/01 04:25:30;;;;;;;8.35;4.05;;;14.00;99.90;;;;;;4995634;28;20049;-81
2023/01/01 04:28:02;;;;;;;9.68;3.90;;;14.00;99.90;;;;;;5010649;28;20052;-86
2023/01/01 04:30:28;;;;;;;8.63;3.30;;;14.00;99.90;;;;;;4996442;28;20052;-84
2023/01/01 04:32:55;;;;;;;6.75;3.15;;;14.00;99.90;;;;;;4995091;28;20045;-82
2023/01/01 04:35:21;;;;;;;10.18;4.20;;;14.00;99.90;;;;;;4994908;28;20046;-83
2023/01/01 04:37:46;;;;;;;11.57;4.05;;;14.00;99.90;;;;;;5012128;28;20042;-82
2023/01/01 04:40:13;;;;;;;8.95;3.35;;;14.00;99.90;;;;;;4995531;28;20034;-84
2023/01/01 04:42:40;;;;;;;11.73;3.50;;;14.00;99.90;;;;;;4980211;28;20042;-81
2023/01/01 04:45:07;;;;;;;7.95;3.88;;;13.90;99.90;;;;;;4999530;28;20038;-83
2023/01/01 04:47:32;;;;;;;7.80;3.03;;;13.90;99.90;;;;;;4983219;28;20053;-82
2023/01/01 04:49:58;;;;;;;10.18;3.78;;;13.80;99.90;;;;;;5015649;28;20042;-82
2023/01/01 04:52:24;;;;;;;10.30;3.30;;;13.80;99.90;;;;;;5015775;28;20042;-82
2023/01/01 04:54:49;;;;;;;10.00;3.75;;;13.70;99.90;;;;;;4999512;28;20048;-84
2023/01/01 04:57:15;;;;;;;8.75;3.50;;;13.60;99.90;;;;;;5015277;28;20457;-82
2023/01/01 04:59:41;;;;;;;7.45;3.33;;;13.50;99.90;;;;;;5015496;28;20136;-84
2023/01/01 05:02:07;;;;;;;10.73;4.07;;;13.40;99.90;;;;;;4998795;28;20425;-85
2023/01/01 05:04:33;;;;;;;10.00;3.67;;;13.40;99.90;;;;;;5015825;28;20042;-84
2023/01/01 05:06:58;;;;;;;9.57;3.83;;;13.40;99.90;;;;;;4998813;28;20045;-81
2023/01/01 05:09:24;;;;;;;8.75;3.13;;;13.40;99.90;;;;;;5015331;28;20100;-83
2023/01/01 05:11:50;;;;;;;9.70;3.03;;;13.40;99.90;;;;;;4983014;28;20049;-81
2023/01/01 05:14:15;;;;;;;9.30;3.15;;;13.30;99.90;;;;;;4983002;28;20405;-84
2023/01/01 05:16:41;;;;;;;7.50;3.75;;;13.40;99.90;;;;;;4998656;28;20124;-82
2023/01/01 05:19:08;;;;;;;8.05;2.97;;;13.40;99.90;;;;;;5015354;28;20041;-82
2023/01/01 05:21:37;;;;;;;8.18;2.70;;;13.40;99.90;;;;;;5015889;28;20117;-83
2023/01/01 05:24:07;;;;;;;7.47;2.50;;;13.50;99.90;;;;;;4996663;28;20039;-84
2023/01/01 05:26:38;;;;;;;6.55;2.60;;;13.50;99.90;;;;;;5012825;28;20541;-83
2023/01/01 05:29:04;;;;;;;9.43;3.05;;;13.50;99.90;;;;;;5014651;28;20042;-83
2023/01/01 05:31:32;;;;;;;7.20;2.50;;;13.50;99.90;;;;;;5001741;28;20053;-82
2023/01/01 05:33:59;;;;;;;6.57;2.40;;;13.50;99.90;;;;;;5011705;28;20045;-83
2023/01/01 05:36:30;;;;;;;5.45;2.67;;;13.50;99.90;;;;;;5015815;28;20555;-82
2023/01/01 05:38:57;;;;;;;7.70;2.60;;;13.50;99.90;;;;;;4998663;28;20870;-82
2023/01/01 05:41:23;;;;;;;5.72;2.42;;;13.40;99.90;;;;;;4998256;28;20390;-82
2023/01/01 05:43:50;;;;;;;6.28;2.10;;;13.40;99.90;;;;;;5014708;28;20056;-81
2023/01/01 05:46:18;;;;;;;6.25;2.40;;;13.40;99.90;;;;;;5014843;28;20038;-80
2023/01/01 05:48:44;;;;;;;4.75;2.75;;;13.40;99.90;;;;;;4998192;28;20482;-82
2023/01/01 05:51:19;;;;;;;9.48;2.42;;;13.40;99.90;;;;;;4998347;28;20045;-83
2023/01/01 05:53:45;;;;;;;4.53;2.28;;;13.40;99.90;;;;;;5013690;28;20100;-82
2023/01/01 05:56:12;;;;;;;7.03;2.60;;;13.40;99.90;;;;;;4997717;28;20042;-84
2023/01/01 05:58:39;;;;;;;5.72;2.30;;;13.40;99.90;;;;;;4982189;28;20124;-80
2023/01/01 06:01:09;;;;;;;6.75;1.92;;;13.30;99.90;;;;;;4997873;28;20044;-81
2023/01/01 06:03:35;;;;;;;5.63;1.80;;;13.30;99.90;;;;;;4997804;28;20132;-81
2023/01/01 06:06:07;;;;;;;5.57;1.67;;;13.30;99.90;;;;;;4997763;28;20564;-85
2023/01/01 06:08:33;;;;;;;4.90;1.98;;;13.20;99.90;;;;;;5015369;28;20038;-83
2023/01/01 06:11:03;;;;;;;6.93;2.22;;;13.20;99.90;;;;;;4981534;28;20037;-84
2023/01/01 06:13:29;;;;;;;2.97;1.80;;;13.20;99.90;;;;;;4997784;28;20045;-83
2023/01/01 06:15:57;;;;;;;4.50;2.13;;;13.20;99.90;;;;;;4991995;28;20118;-80
2023/01/01 06:18:24;;;;;;;5.53;2.03;;;13.10;99.90;;;;;;4994941;28;20092;-81
2023/01/01 06:20:50;;;;;;;3.58;1.60;;;13.10;99.90;;;;;;4994501;28;20077;-80
2023/01/01 06:23:16;;;;;;;5.78;1.90;;;13.00;99.90;;;;;;4982331;28;20646;-82
2023/01/01 06:25:42;;;;;;;4.68;1.52;;;13.00;99.90;;;;;;5014550;28;20032;-83
2023/01/01 06:28:08;;;;;;;6.25;1.77;;;13.00;99.90;;;;;;4980845;28;20112;-81
2023/01/01 06:30:34;;;;;;;6.15;1.88;;;13.00;99.90;;;;;;4981372;28;20125;-82
2023/01/01 06:33:00;;;;;;;5.65;1.70;;;12.90;99.90;;;;;;4997882;28;20053;-84
2023/01/01 06:35:26;;;;;;;4.15;1.92;;;12.90;99.90;;;;;;4997651;28;20048;-84
2023/01/01 06:37:52;;;;;;;6.07;1.92;;;12.90;99.90;;;;;;5013691;28;20060;-81
2023/01/01 06:40:18;;;;;;;4.93;1.75;;;12.80;99.90;;;;;;4980859;28;20470;-80
2023/01/01 06:42:43;;;;;;;3.60;1.50;;;12.80;99.90;;;;;;4996368;28;20069;-80
2023/01/01 06:45:09;;;;;;;6.68;1.75;;;12.80;99.90;;;;;;4997073;28;20037;-84
2023/01/01 06:47:36;;;;;;;6.28;1.55;;;12.80;99.90;;;;;;4997144;28;20440;-81
2023/01/01 06:50:03;;;;;;;4.07;1.67;;;12.80;99.90;;;;;;4996952;28;20091;-81
2023/01/01 06:52:28;;;;;;;4.78;1.80;;;12.80;99.90;;;;;;4965368;28;20038;-81
2023/01/01 06:54:54;;;;;;;6.93;1.90;;;12.80;99.90;;;;;;4980777;28;20470;-81
2023/01/01 06:57:20;;;;;;;7.40;1.70;;;12.80;99.90;;;;;;4981002;28;20132;-82
2023/01/01 06:59:46;;;;;;;4.05;1.90;;;12.80;99.90;;;;;;4979650;28;20045;-83
2023/01/01 07:02:11;;;;;;;4.13;1.73;;;12.80;99.90;;;;;;4980869;28;20128;-83
2023/01/01 07:04:37;;;;;;;5.50;1.90;;;12.70;99.90;;;;;;4996604;28;20069;-86
2023/01/01 07:07:04;;;;;;;5.88;2.10;;;12.70;99.90;;;;;;4996705;28;20053;-86
2023/01/01 07:09:29;;;;;;;4.55;1.95;;;12.60;99.90;;;;;;4980674;28;20040;-84
2023/01/01 07:11:55;;;;;;;6.50;2.05;;;12.60;99.90;;;;;;4980520;28;20477;-87
2023/01/01 07:14:21;;;;;;;5.32;2.22;;;12.60;99.90;;;;;;4996823;28;20050;-87
2023/01/01 07:16:46;;;;;;;10.43;3.22;;;12.60;99.90;;;;;;4996726;28;20037;-86
2023/01/01 07:19:12;;;;;;;7.10;1.90;;;12.60;99.90;;;;;;4980342;28;20034;-85
2023/01/01 07:21:38;;;;;;;8.23;1.90;;;12.60;99.90;;;;;;4996869;28;20045;-86
2023/01/01 07:24:04;;;;;;;7.20;2.15;;;12.60;99.90;;;;;;4996714;28;20042;-85
2023/01/01 07:26:31;;;;;;;6.18;2.25;;;12.60;99.90;;;;;;5012975;28;20505;-86
2023/01/01 07:28:57;;;;;;;7.07;2.33;;;12.50;99.90;;;;;;4996675;28;20045;-87
2023/01/01 07:31:23;;;;;;;8.07;2.40;;;12.50;99.90;;;;;;5015119;28;20092;-86
2023/01/01 07:33:49;;;;;;;6.65;2.10;;;12.50;99.90;;;;;;4984084;28;20038;-86
2023/01/01 07:36:15;;;;;;;8.68;2.72;;;12.50;99.90;;;;;;4996490;28;20046;-87
2023/01/01 07:38:41;;;;;;;9.75;2.17;;;12.50;99.90;;;;;;4996555;28;20397;-86
2023/01/01 07:41:07;;;;;;;7.57;2.10;;;12.40;99.90;;;;;;4976500;28;20057;-87
2023/01/01 07:43:32;;;;;;;6.60;2.33;;;12.40;99.90;;;;;;4991864;28;20049;-86
2023/01/01 07:45:58;;;;;;;5.10;1.98;;;12.40;99.90;;;;;;4976832;28;20088;-85
2023/01/01 07:48:25;;;;;;;9.48;2.65;;;12.40;99.90;;;;;;5012509;28;20109;-87
2023/01/01 07:50:50;;;;;;;5.85;2.30;;;12.40;99.90;;;;;;4995273;28;20081;-86
2023/01/01 07:53:16;;;;;;;11.85;2.22;;;12.40;99.90;;;;;;4966286;28;20076;-86
2023/01/01 07:55:42;;;;;;;7.97;2.55;;;12.40;99.90;;;;;;5002589;28;20128;-87
2023/01/01 07:58:10;;;;;;;12.20;2.50;;;12.40;99.90;;;;;;4999788;28;20049;-86
2023/01/01 08:00:35;;;;;;;8.07;2.42;;;12.30;99.90;;;;;;4988008;28;20066;-87
2023/01/01 08:03:01;;;;;;;5.30;1.90;;;12.30;99.90;;;;;;4992978;28;20789;-84
2023/01/01 08:05:27;;;;;;;8.82;2.58;;;12.30;99.90;;;;;;5013463;28;20117;-85
2023/01/01 08:07:54;;;;;;;9.15;2.30;;;12.30;99.90;;;;;;4991867;28;20049;-85
2023/01/01 08:10:20;;;;;;;8.02;2.20;;;12.20;99.90;;;;;;5012029;28;20063;-86
2023/01/01 08:12:46;;;;;;;8.18;2.40;;;12.20;99.90;;;;;;4995815;28;20042;-84
2023/01/01 08:15:13;;;;;;;7.90;2.13;;;12.20;99.90;;;;;;4993122;28;20033;-85
2023/01/01 08:17:39;;;;;;;8.45;2.70;;;12.20;99.90;;;;;;4993680;28;20039;-86
2023/01/01 08:20:06;;;;;;;6.78;2.33;;;12.30;99.90;;;;;;5008988;28;20034;-87
2023/01/01 08:22:31;;;;;;;9.48;2.17;;;12.30;99.90;;;;;;4979599;28;20451;-85
2023/01/01 08:24:57;;;;;;;6.00;2.17;;;12.20;99.90;;;;;;4991428;28;20123;-86
2023/01/01 08:27:23;;;;;;;6.93;2.30;;;12.20;99.90;;;;;;4992688;28;20046;-85
2023/01/01 08:29:48;;;;;;;5.38;2.03;;;12.10;99.90;;;;;;5002278;28;20046;-84
2023/01/01 08:32:14;;;;;;;10.65;2.50;;;12.10;99.90;;;;;;4993809;28;20462;-85
2023/01/01 08:34:40;;;;;;;8.90;2.17;;;12.10;99.90;;;;;;4992575;28;20054;-86
2023/01/01 08:37:10;;;;;;;9.10;2.45;;;12.10;99.90;;;;;;4974403;28;20478;-85
2023/01/01 08:39:36;;;;;;;7.07;2.05;;;12.20;99.90;;;;;;4980033;28;20049;-85
2023/01/01 08:42:01;;;;;;;6.97;2.05;;;12.10;99.90;;;;;;4970521;28;20034;-85
2023/01/01 08:44:27;;;;;;;8.02;2.10;;;12.10;99.90;;;;;;4980084;28;20068;-88
2023/01/01 08:46:53;;;;;;;9.68;2.35;;;12.10;99.90;;;;;;4972995;28;20089;-87
2023/01/01 08:49:18;;;;;;;9.02;2.28;;;12.10;99.90;;;;;;4995293;28;20049;-84
2023/01/01 08:51:44;;;;;;;9.52;2.72;;;12.10;99.90;;;;;;4979600;28;20073;-86
2023/01/01 08:54:10;;;;;;;9.52;2.28;;;12.10;99.90;;;;;;4995664;28;20045;-86
2023/01/01 08:56:36;;;;;;;6.32;2.00;;;12.10;99.90;;;;;;4947079;28;20044;-86
2023/01/01 08:59:02;;;;;;;7.05;2.35;;;12.10;99.90;;;;;;4988381;28;20050;-85
2023/01/01 09:01:28;;;;;;;11.57;2.35;;;12.10;99.90;;;;;;4981641;28;20042;-86
2023/01/01 09:03:54;;;;;;;6.82;2.08;;;12.10;99.90;;;;;;4988383;28;20042;-85
2023/01/01 09:06:20;;;;;;;10.38;2.05;;;12.10;99.90;;;;;;4979215;28;20409;-84
2023/01/01 09:08:46;;;;;;;7.03;2.60;;;12.10;99.90;;;;;;5011833;28;20128;-87
2023/01/01 09:11:26;;;;;;;9.57;2.70;;;12.10;99.90;;;;;;4979568;28;20052;-86
2023/01/01 09:13:52;;;;;;;8.18;1.90;;;12.10;99.90;;;;;;4988051;28;20042;-86
2023/01/01 09:16:19;;;;;;;10.82;2.53;;;12.10;99.90;;;;;;4995873;28;20037;-84
2023/01/01 09:18:45;;;;;;;7.57;2.85;;;12.10;99.90;;;;;;4988283;28;20042;-85
2023/01/01 09:21:11;;;;;;;9.88;2.22;;;12.10;99.90;;;;;;4972292;28;20045;-84
2023/01/01 09:23:37;;;;;;;8.70;2.42;;;12.10;99.90;;;;;;4995600;28;20041;-85
2023/01/01 09:26:05;;;;;;;12.68;2.75;;;12.10;99.90;;;;;;4995627;28;20713;-84
2023/01/01 09:28:30;;;;;;;11.40;3.10;;;12.10;99.90;;;;;;4995276;28;20038;-85
2023/01/01 09:30:56;;;;;;;11.35;2.22;;;12.10;99.90;;;;;;4972856;28;20046;-85
2023/01/01 09:33:22;;;;;;;9.13;2.47;;;12.10;99.90;;;;;;4994700;28;20053;-85
2023/01/01 09:35:48;;;;;;;6.82;2.55;;;12.20;99.90;;;;;;4975741;28;20564;-85
2023/01/01 09:38:13;;;;;;;8.90;2.65;;;12.20;99.90;;;;;;4992769;28;20050;-85
2023/01/01 09:41:07;;;;;;;13.10;2.67;;;12.20;99.90;;;;;;4984927;28;20132;-84
2023/01/01 09:43:48;;;;;;;10.57;2.38;;;12.20;99.90;;;;;;4994978;28;20339;-85
2023/01/01 09:46:14;;;;;;;9.57;2.92;;;12.20;99.90;;;;;;4995804;28;20398;-86
2023/01/01 09:49:12;;;;;;;8.55;2.03;;;12.20;99.90;;;;;;5012596;28;20042;-86
2023/01/01 09:51:39;;;;;;;9.25;2.60;;;12.20;99.90;;;;;;5012041;28;20049;-84
2023/01/01 09:54:28;;;;;;;15.00;3.30;;;12.20;99.90;;;;;;4979244;28;20034;-83
2023/01/01 09:56:58;;;;;;;10.32;2.25;;;12.20;99.90;;;;;;4990009;28;20049;-85
2023/01/01 09:59:25;;;;;;;10.20;2.65;;;12.10;99.90;;;;;;4998172;28;20042;-85
2023/01/01 10:02:11;;;;;;;11.35;2.38;;;12.20;99.90;;;;;;5014743;28;20510;-84
2023/01/01 10:04:49;;;;;;;10.70;2.60;;;12.20;99.90;;;;;;4998327;28;20041;-85
2023/01/01 10:07:45;;;;;;;11.65;2.63;;;12.10;99.90;;;;;;4997970;28;20054;-85
2023/01/01 10:10:51;;;;;;;9.18;2.28;;;12.10;99.90;;;;;;5002696;28;20041;-86
2023/01/01 10:13:43;;;;;;;10.73;2.55;;;12.20;99.90;;;;;;4998183;28;20037;-85
2023/01/01 10:16:36;;;;;;;8.02;2.55;;;12.10;99.90;;;;;;5010797;28;20038;-85
2023/01/01 10:19:26;;;;;;;10.40;2.40;;;12.10;99.90;;;;;;4997205;28;20100;-86
2023/01/01 10:21:54;;;;;;;6.57;2.13;;;12.10;99.90;;;;;;5013807;28;20050;-86
2023/01/01 10:24:45;;;;;;;9.82;2.30;;;12.10;99.90;;;;;;5010795;28;20057;-86
2023/01/01 10:27:32;;;;;;;7.95;2.40;;;12.10;99.90;;;;;;4995585;28;20133;-85
2023/01/01 10:30:02;;;;;;;10.60;2.53;;;12.00;99.90;;;;;;4983697;28;20037;-85
2023/01/01 10:32:35;;;;;;;10.27;2.40;;;12.00;99.90;;;;;;4998344;28;20507;-84
2023/01/01 10:35:09;;;;;;;7.65;2.42;;;12.00;99.90;;;;;;5014252;28;20464;-85
2023/01/01 10:37:37;;;;;;;9.55;2.30;;;12.10;99.90;;;;;;4997845;28;20100;-85
2023/01/01 10:40:13;;;;;;;9.05;2.00;;;12.10;99.90;;;;;;5014487;28;20104;-85
2023/01/01 10:42:39;;;;;;;9.27;2.40;;;12.30;99.90;;;;;;4997885;28;20133;-85
2023/01/01 10:45:05;;;;;;;9.63;2.25;;;12.30;99.90;;;;;;4981804;28;20130;-86
2023/01/01 10:47:31;;;;;;;12.07;2.15;;;12.30;99.90;;;;;;4982702;28;20042;-85
2023/01/01 10:50:03;;;;;;;10.30;2.13;;;12.30;99.90;;;;;;4981463;28;20042;-85
2023/01/01 10:52:44;;;;;;;;;;;12.40;99.90;;;;;;4998183;28;20107;-84
2023/01/01 10:55:20;;;;;;;11.35;2.40;;;12.40;99.90;;;;;;5013637;28;19925;-85
2023/01/01 10:57:46;;;;;;;8.73;2.13;;;12.40;99.90;;;;;;4997684;28;20128;-86
2023/01/01 11:00:24;;;;;;;9.00;1.95;;;12.40;99.90;;;;;;4997336;28;20128;-86
2023/01/01 11:03:14;;;;;;;9.07;2.25;;;12.50;99.90;;;;;;4997046;28;20039;-84
2023/01/01 11:06:00;;;;;;;10.95;2.25;;;12.50;99.90;;;;;;5011590;28;20056;-85
2023/01/01 11:08:28;;;;;;;9.02;2.33;;;12.50;99.90;;;;;;5009703;28;20076;-85
2023/01/01 11:10:57;;;;;;;13.63;2.75;;;12.60;99.90;;;;;;4973687;28;20042;-85
2023/01/01 11:13:23;;;;;;;12.07;2.63;;;12.60;99.90;;;;;;4985037;28;20498;-85
2023/01/01 11:15:49;;;;;;;9.75;2.35;;;12.60;99.90;;;;;;4981998;28;20121;-85
2023/01/01 11:18:21;;;;;;;13.82;2.60;;;12.60;99.90;;;;;;4988240;28;20109;-87
2023/01/01 11:20:52;;;;;;;7.28;2.25;;;12.60;99.90;;;;;;4996986;28;20119;-85
2023/01/01 11:23:27;;;;;;;9.85;2.35;;;12.60;99.90;;;;;;5004693;28;20070;-84
2023/01/01 11:26:16;;;;;;;10.27;2.33;;;12.60;99.90;;;;;;4996407;28;20116;-84
2023/01/01 11:29:17;;;;;;;10.23;2.92;;;12.60;99.90;;;;;;4977759;28;20410;-85
2023/01/01 11:31:47;;;;;;;6.85;1.92;;;12.50;99.90;;;;;;5006376;28;20050;-85
2023/01/01 11:34:38;;;;;;;10.68;2.47;;;12.50;99.90;;;;;;4996012;28;20104;-85
2023/01/01 11:37:15;;;;;;;9.52;2.33;;;12.50;99.90;;;;;;5009725;28;20383;-86
2023/01/01 11:39:49;;;;;;;14.80;3.05;;;12.50;99.90;;;;;;5007794;28;20049;-85
2023/01/01 11:42:18;;;;;;;13.02;2.78;;;12.50;99.90;;;;;;4993207;28;20129;-85
2023/01/01 11:44:48;;;;;;;11.07;2.08;;;12.50;99.90;;;;;;4994462;28;20038;-85
2023/01/01 11:47:38;;;;;;;10.07;2.30;;;12.50;99.90;;;;;;5003362;28;20125;-84
2023/01/01 11:50:15;;;;;;;7.78;2.28;;;12.60;99.90;;;;;;5003564;28;20069;-86
2023/01/01 11:52:48;;;;;;;5.97;2.47;;;12.60;99.90;;;;;;5005577;28;20048;-85
2023/01/01 11:55:25;;;;;;;10.00;2.20;;;12.60;99.90;;;;;;4980622;28;20046;-86
2023/01/01 11:58:15;;;;;;;13.38;2.45;;;12.60;99.90;;;;;;4996182;28;20046;-85
2023/01/01 12:00:40;;;;;;;10.90;2.95;;;12.70;99.90;;;;;;4995988;28;20049;-86
2023/01/01 12:03:21;;;;;;;9.50;2.40;;;12.70;99.90;;;;;;4961607;28;20045;-86
2023/01/01 12:06:12;;;;;;;9.90;2.72;;;12.70;99.90;;;;;;4996320;28;20052;-86
2023/01/01 12:09:03;;;;;;;11.63;2.30;;;12.70;99.90;;;;;;5012675;28;20048;-85
2023/01/01 12:11:40;;;;;;;5.90;2.17;;;12.70;99.90;;;;;;5013754;28;20049;-86
2023/01/01 12:14:41;;;;;;;8.82;2.35;;;12.80;99.90;;;;;;4997041;28;20037;-86
2023/01/01 12:17:35;;;;;;;7.53;2.40;;;12.80;99.90;;;;;;5013751;28;20118;-87
2023/01/01 12:20:24;;;;;;;10.52;3.00;;;12.80;99.90;;;;;;5014198;28;20048;-86
2023/01/01 12:22:54;;;;;;;10.77;2.55;;;12.80;99.90;;;;;;4997169;28;20038;-86
2023/01/01 12:25:20;;;;;;;11.20;2.53;;;12.70;99.90;;;;;;4996640;28;20042;-86
2023/01/01 12:28:18;;;;;;;11.27;2.97;;;12.70;99.90;;;;;;4980842;28;20040;-86
2023/01/01 12:31:12;;;;;;;10.43;2.65;;;12.70;99.90;;;;;;4993790;28;20038;-85
2023/01/01 12:33:53;;;;;;;12.15;3.10;;;12.60;99.90;;;;;;4978330;28;20121;-86
2023/01/01 12:36:54;;;;;;;14.52;3.00;;;12.60;99.90;;;;;;4993099;28;20085;-86
2023/01/01 12:40:00;;;;;;;10.07;2.75;;;12.60;99.90;;;;;;5011587;28;20037;-85
2023/01/01 12:43:00;;;;;;;9.00;2.60;;;12.60;99.90;;;;;;4997955;28;20136;-87
2023/01/01 12:46:05;;;;;;;11.02;2.67;;;12.60;99.90;;;;;;4992777;28;20498;-87
2023/01/01 12:49:00;;;;;;;10.45;2.20;;;12.50;99.90;;;;;;4982064;28;20042;-86
2023/01/01 12:51:35;;;;;;;7.15;2.58;;;12.50;99.90;;;;;;4996343;28;20074;-86
2023/01/01 12:54:21;;;;;;;6.38;2.08;;;12.50;99.90;;;;;;5014004;28;20061;-86
2023/01/01 12:57:13;;;;;;;9.57;2.20;;;12.50;99.90;;;;;;4993395;28;20077;-85
2023/01/01 12:59:42;;;;;;;;;;;12.40;99.90;;;;;;4997435;28;20477;-86
2023/01/01 13:02:27;;;;;;;7.05;1.85;;;12.40;99.90;;;;;;5015012;28;20004;-87
2023/01/01 13:04:59;;;;;;;11.13;3.00;;;12.40;99.90;;;;;;5014966;28;20081;-87
2023/01/01 13:07:35;;;;;;;8.90;2.28;;;12.40;99.90;;;;;;5001009;28;20050;-87